createdAt,value
2018-03-15T00:00:05.012Z,5.97
2018-03-15T00:02:32.702Z,5.75
2018-03-15T00:05:01.123Z,5.45
2018-03-15T00:07:28.738Z,6.18
2018-03-15T00:09:57.137Z,5.72
2018-03-15T00:12:24.818Z,6.10
2018-03-15T00:14:52.484Z,6.20
2018-03-15T00:17:20.358Z,6.30
2018-03-15T00:19:47.951Z,5.67
2018-03-15T00:22:15.553Z,6.50
2018-03-15T00:24:43.972Z,6.20
2018-03-15T00:27:11.589Z,5.70
2018-03-15T00:29:39.227Z,6.12
2018-03-15T00:32:07.159Z,6.20
2018-03-15T00:34:34.775Z,6.20
2018-03-15T00:37:02.400Z,7.43
2018-03-15T00:39:30.056Z,6.12
2018-03-15T00:41:58.433Z,6.82
2018-03-15T00:44:26.821Z,6.72
2018-03-15T00:46:54.442Z,6.30
2018-03-15T00:49:22.135Z,6.03
2018-03-15T00:51:50.550Z,6.12
2018-03-15T00:54:18.184Z,5.70
2018-03-15T00:56:46.558Z,6.65
2018-03-15T00:59:15.720Z,6.35
2018-03-15T01:01:43.313Z,5.85
2018-03-15T01:04:10.976Z,6.45
2018-03-15T01:06:38.595Z,6.00
2018-03-15T01:09:06.262Z,6.22
2018-03-15T01:11:33.859Z,6.90
2018-03-15T01:14:01.498Z,5.87
2018-03-15T01:16:29.146Z,5.97
2018-03-15T01:18:57.587Z,6.22
2018-03-15T01:21:25.204Z,6.00
2018-03-15T01:23:53.605Z,6.28
2018-03-15T01:26:21.265Z,6.97
2018-03-15T01:28:49.677Z,6.28
2018-03-15T01:31:17.331Z,6.45
2018-03-15T01:33:44.945Z,6.60
2018-03-15T01:36:12.655Z,6.60
2018-03-15T01:38:40.265Z,6.28
2018-03-15T01:41:07.906Z,6.87
2018-03-15T01:43:35.538Z,6.95
2018-03-15T01:46:03.992Z,6.65
2018-03-15T01:48:31.626Z,6.30
2018-03-15T01:50:59.259Z,6.80
2018-03-15T01:53:27.646Z,6.22
2018-03-15T01:55:55.348Z,7.12
2018-03-15T01:58:23.015Z,6.82
2018-03-15T02:00:50.660Z,6.80
2018-03-15T02:03:18.334Z,7.10
2018-03-15T02:05:45.949Z,6.05
2018-03-15T02:08:14.388Z,6.00
2018-03-15T02:10:42.049Z,7.10
2018-03-15T02:13:09.935Z,6.97
2018-03-15T02:15:37.698Z,6.97
2018-03-15T02:18:05.339Z,6.18
2018-03-15T02:20:33.768Z,6.47
2018-03-15T02:23:01.374Z,7.07
2018-03-15T02:25:29.799Z,6.20
2018-03-15T02:27:57.422Z,6.85
2018-03-15T02:30:25.874Z,6.72
2018-03-15T02:32:53.582Z,6.30
2018-03-15T02:35:21.985Z,6.57
2018-03-15T02:37:49.601Z,6.62
2018-03-15T02:40:17.321Z,7.07
2018-03-15T02:42:44.979Z,6.97
2018-03-15T02:45:13.361Z,7.43
2018-03-15T02:47:40.963Z,6.70
2018-03-15T02:50:08.629Z,6.55
2018-03-15T02:52:36.301Z,6.60
2018-03-15T02:55:03.913Z,6.22
2018-03-15T02:57:32.329Z,7.10
2018-03-15T02:59:59.996Z,7.10
2018-03-15T03:02:27.643Z,7.17
2018-03-15T03:04:55.249Z,7.10
2018-03-15T03:07:22.905Z,7.05
2018-03-15T03:09:50.531Z,7.70
2018-03-15T03:12:18.937Z,6.97
2018-03-15T03:14:46.577Z,7.10
2018-03-15T03:17:14.946Z,6.70
2018-03-15T03:19:42.610Z,7.37
2018-03-15T03:22:10.244Z,7.25
2018-03-15T03:24:37.887Z,7.30
2018-03-15T03:27:05.519Z,7.75
2018-03-15T03:29:33.914Z,7.50
2018-03-15T03:32:02.337Z,7.00
2018-03-15T03:34:29.950Z,6.72
2018-03-15T03:36:57.703Z,7.25
2018-03-15T03:39:25.386Z,6.62
2018-03-15T03:41:53.054Z,7.33
2018-03-15T03:44:20.720Z,7.43
2018-03-15T03:46:48.350Z,7.10
2018-03-15T03:49:15.991Z,7.00
2018-03-15T03:51:43.590Z,7.35
2018-03-15T03:54:11.259Z,6.65
2018-03-15T03:56:38.894Z,6.90
2018-03-15T03:59:06.530Z,7.32
2018-03-15T04:01:34.162Z,7.67
2018-03-15T04:04:01.808Z,7.57
2018-03-15T04:06:29.438Z,7.20
2018-03-15T04:08:57.864Z,8.13
2018-03-15T04:11:25.507Z,8.40
2018-03-15T04:13:53.136Z,8.63
2018-03-15T04:16:21.565Z,8.00
2018-03-15T04:18:49.204Z,7.62
2018-03-15T04:21:17.632Z,8.00
2018-03-15T04:23:45.279Z,7.90
2018-03-15T04:26:12.928Z,8.15
2018-03-15T04:28:41.307Z,8.23
2018-03-15T04:31:09.723Z,8.65
2018-03-15T04:33:37.368Z,7.90
2018-03-15T04:36:05.012Z,9.13
2018-03-15T04:38:32.626Z,8.57
2018-03-15T04:41:00.507Z,8.00
2018-03-15T04:43:28.126Z,8.33
2018-03-15T04:45:56.504Z,8.50
2018-03-15T04:48:24.909Z,8.15
2018-03-15T04:50:52.515Z,8.70
2018-03-15T04:53:20.151Z,8.25
2018-03-15T04:55:47.768Z,8.10
2018-03-15T04:58:15.426Z,8.18
2018-03-15T05:00:43.144Z,8.32
2018-03-15T05:03:10.800Z,7.95
2018-03-15T05:05:39.207Z,8.13
2018-03-15T05:08:07.099Z,7.70
2018-03-15T05:10:34.735Z,8.15
2018-03-15T05:13:02.394Z,8.43
2018-03-15T05:15:30.032Z,8.30
2018-03-15T05:17:58.461Z,8.40
2018-03-15T05:20:26.131Z,7.60
2018-03-15T05:22:53.810Z,8.40
2018-03-15T05:25:21.445Z,7.25
2018-03-15T05:27:49.105Z,7.77
2018-03-15T05:30:16.717Z,7.37
2018-03-15T05:32:44.355Z,8.15
2018-03-15T05:35:11.959Z,7.80
2018-03-15T05:37:39.627Z,7.65
2018-03-15T05:40:07.278Z,7.78
2018-03-15T05:42:34.925Z,8.02
2018-03-15T05:45:02.534Z,7.22
2018-03-15T05:47:30.326Z,8.53
2018-03-15T05:49:57.983Z,7.63
2018-03-15T05:52:25.620Z,7.35
2018-03-15T05:54:53.258Z,8.60
2018-03-15T05:57:20.881Z,8.05
2018-03-15T05:59:49.306Z,7.40
2018-03-15T06:02:16.921Z,7.37
2018-03-15T06:04:44.557Z,7.30
2018-03-15T06:07:12.173Z,7.40
2018-03-15T06:09:40.585Z,7.60
2018-03-15T06:12:09.179Z,6.50
2018-03-15T06:14:36.901Z,6.93
2018-03-15T06:17:05.316Z,7.27
2018-03-15T06:19:32.975Z,7.57
2018-03-15T06:22:00.633Z,7.20
2018-03-15T06:24:29.017Z,7.95
2018-03-15T06:26:58.897Z,7.57
2018-03-15T06:29:26.589Z,7.80
2018-03-15T06:31:54.254Z,7.97
2018-03-15T06:34:21.881Z,7.03
2018-03-15T06:36:49.497Z,6.75
2018-03-15T06:39:17.917Z,7.20
2018-03-15T06:41:45.533Z,7.40
2018-03-15T06:44:13.180Z,6.82
2018-03-15T06:46:40.835Z,7.65
2018-03-15T06:49:08.485Z,6.60
2018-03-15T06:51:36.101Z,6.72
2018-03-15T06:54:03.730Z,7.00
2018-03-15T06:56:31.375Z,6.93
2018-03-15T06:58:59.027Z,7.60
2018-03-15T07:01:26.682Z,6.87
2018-03-15T07:03:55.223Z,6.75
2018-03-15T07:06:22.992Z,7.10
2018-03-15T07:08:50.629Z,8.33
2018-03-15T07:11:18.220Z,7.18
2018-03-15T07:13:45.854Z,7.12
2018-03-15T07:16:14.234Z,7.40
2018-03-15T07:18:42.634Z,6.90
2018-03-15T07:21:10.274Z,7.32
2018-03-15T07:23:38.669Z,7.07
2018-03-15T07:26:06.340Z,6.97
2018-03-15T07:28:33.994Z,7.43
2018-03-15T07:31:02.425Z,7.80
2018-03-15T07:33:30.039Z,7.40
2018-03-15T07:35:57.772Z,7.35
2018-03-15T07:38:25.397Z,7.00
2018-03-15T07:40:53.016Z,7.12
2018-03-15T07:43:20.691Z,7.05
2018-03-15T07:45:48.749Z,7.62
2018-03-15T07:48:16.443Z,7.43
2018-03-15T07:50:44.105Z,7.20
2018-03-15T07:53:11.893Z,7.82
2018-03-15T07:55:40.315Z,7.25
2018-03-15T07:58:07.944Z,7.62
2018-03-15T08:00:36.362Z,7.00
2018-03-15T08:03:04.061Z,6.12
2018-03-15T08:05:31.706Z,7.32
2018-03-15T08:07:59.362Z,7.30
2018-03-15T08:10:27.006Z,7.60
2018-03-15T08:12:54.669Z,8.00
2018-03-15T08:15:22.296Z,7.62
2018-03-15T08:17:49.948Z,7.22
2018-03-15T08:20:17.583Z,7.18
2018-03-15T08:22:45.231Z,7.40
2018-03-15T08:25:12.911Z,6.80
2018-03-15T08:27:40.515Z,6.43
2018-03-15T08:30:08.154Z,6.82
2018-03-15T08:32:35.955Z,6.25
2018-03-15T08:35:03.581Z,7.10
2018-03-15T08:37:31.202Z,7.00
2018-03-15T08:39:58.842Z,6.95
2018-03-15T08:42:26.480Z,6.28
2018-03-15T08:44:54.145Z,6.62
2018-03-15T08:47:22.011Z,7.67
2018-03-15T08:49:49.656Z,6.78
2018-03-15T08:52:18.119Z,6.77
2018-03-15T08:54:45.764Z,6.80
2018-03-15T08:57:13.387Z,7.00
2018-03-15T08:59:41.796Z,7.25
2018-03-15T09:02:09.407Z,6.50
2018-03-15T09:04:37.997Z,6.87
2018-03-15T09:07:05.260Z,7.28
2018-03-15T09:09:32.899Z,6.80
2018-03-15T09:12:00.512Z,7.37
2018-03-15T09:14:28.916Z,7.05
2018-03-15T09:16:56.847Z,6.80
2018-03-15T09:19:24.469Z,7.30
2018-03-15T09:21:52.163Z,6.93
2018-03-15T09:24:19.796Z,7.10
2018-03-15T09:26:47.466Z,7.53
2018-03-15T09:29:15.247Z,7.75
2018-03-15T09:31:42.845Z,7.03
2018-03-15T09:34:10.483Z,7.50
2018-03-15T09:36:38.167Z,7.55
2018-03-15T09:39:06.580Z,6.90
2018-03-15T09:41:35.010Z,7.45
2018-03-15T09:44:02.619Z,7.28
2018-03-15T09:46:31.055Z,6.97
2018-03-15T09:48:58.702Z,6.77
2018-03-15T09:51:26.354Z,7.12
2018-03-15T09:53:53.998Z,7.43
2018-03-15T09:56:21.650Z,6.87
2018-03-15T09:58:49.314Z,6.70
2018-03-15T10:01:16.937Z,7.15
2018-03-15T10:03:44.606Z,7.07
2018-03-15T10:06:12.252Z,6.50
2018-03-15T10:08:40.672Z,7.00
2018-03-15T10:11:08.335Z,7.15
2018-03-15T10:13:36.741Z,6.53
2018-03-15T10:16:04.372Z,7.12
2018-03-15T10:18:32.033Z,6.90
2018-03-15T10:20:59.718Z,7.18
2018-03-15T10:23:27.694Z,6.93
2018-03-15T10:25:55.344Z,6.50
2018-03-15T10:28:22.999Z,6.77
2018-03-15T10:30:51.446Z,7.37
2018-03-15T10:36:16.529Z,7.28
2018-03-15T10:38:44.156Z,7.22
2018-03-15T10:41:12.565Z,6.85
2018-03-15T10:43:40.269Z,7.30
2018-03-15T10:46:07.896Z,7.67
2018-03-15T10:48:35.572Z,7.57
2018-03-15T10:51:03.192Z,6.95
2018-03-15T10:53:31.561Z,6.55
2018-03-15T10:55:59.289Z,6.70
2018-03-15T10:58:26.913Z,6.82
2018-03-15T11:01:01.057Z,6.50
2018-03-15T11:03:34.316Z,6.70
2018-03-15T11:06:08.424Z,6.10
2018-03-15T11:08:36.053Z,5.43
2018-03-15T11:11:03.717Z,5.47
2018-03-15T11:13:31.386Z,5.93
2018-03-15T11:15:59.760Z,5.93
2018-03-15T11:18:27.445Z,5.03
2018-03-15T11:20:55.082Z,5.50
2018-03-15T11:23:22.775Z,4.80
2018-03-15T11:25:50.398Z,5.12
2018-03-15T11:28:18.805Z,5.32
2018-03-15T11:30:46.449Z,4.70
2018-03-15T11:33:14.111Z,4.97
2018-03-15T11:35:42.537Z,5.10
2018-03-15T11:38:10.206Z,5.00
2018-03-15T11:40:37.855Z,4.78
2018-03-15T11:43:05.543Z,5.00
2018-03-15T11:45:33.234Z,4.85
2018-03-15T11:48:00.898Z,4.87
2018-03-15T11:50:28.560Z,4.67
2018-03-15T11:52:56.271Z,4.78
2018-03-15T11:55:24.722Z,4.90
2018-03-15T11:57:52.384Z,4.78
2018-03-15T12:00:20.046Z,4.47
2018-03-15T12:02:48.480Z,4.55
2018-03-15T12:05:16.102Z,4.65
2018-03-15T12:07:43.848Z,4.93
2018-03-15T12:10:12.261Z,4.85
2018-03-15T12:12:40.724Z,4.80
2018-03-15T12:15:09.142Z,4.70
2018-03-15T12:17:36.823Z,4.50
2018-03-15T12:20:04.433Z,4.18
2018-03-15T12:22:32.055Z,4.70
2018-03-15T12:24:59.697Z,4.78
2018-03-15T12:27:27.525Z,4.43
2018-03-15T12:29:55.154Z,4.25
2018-03-15T12:32:23.780Z,4.80
2018-03-15T12:34:51.380Z,4.78
2018-03-15T12:37:19.759Z,4.40
2018-03-15T12:39:47.420Z,4.80
2018-03-15T12:42:15.023Z,4.70
2018-03-15T12:44:42.642Z,4.55
2018-03-15T12:47:10.284Z,4.90
2018-03-15T12:49:38.664Z,4.97
2018-03-15T12:52:07.090Z,4.80
2018-03-15T12:54:34.748Z,4.67
2018-03-15T12:57:02.348Z,4.60
2018-03-15T12:59:29.969Z,4.47
2018-03-15T13:01:57.768Z,4.80
2018-03-15T13:04:25.400Z,4.57
2018-03-15T13:06:53.102Z,4.43
2018-03-15T13:09:20.790Z,4.30
2018-03-15T13:11:48.412Z,4.50
2018-03-15T13:14:15.998Z,4.90
2018-03-15T13:16:43.679Z,4.70
2018-03-15T13:19:11.289Z,4.95
2018-03-15T13:21:38.954Z,4.57
2018-03-15T13:24:06.560Z,4.78
2018-03-15T13:26:34.567Z,4.72
2018-03-15T13:29:02.200Z,4.70
2018-03-15T13:31:29.833Z,4.40
2018-03-15T13:33:58.223Z,4.95
2018-03-15T13:36:25.954Z,4.78
2018-03-15T13:38:53.609Z,4.50
2018-03-15T13:41:21.237Z,4.60
2018-03-15T13:43:48.877Z,4.82
2018-03-15T13:46:17.288Z,5.20
2018-03-15T13:48:44.972Z,5.30
2018-03-15T13:51:12.626Z,4.95
2018-03-15T13:53:40.251Z,5.47
2018-03-15T13:56:08.661Z,4.90
2018-03-15T13:58:36.289Z,5.00
2018-03-15T14:01:03.920Z,4.85
2018-03-15T14:03:31.570Z,4.50
2018-03-15T14:05:59.218Z,4.87
2018-03-15T14:08:26.950Z,5.35
2018-03-15T14:10:54.601Z,5.05
2018-03-15T14:13:22.226Z,5.20
2018-03-15T14:15:49.891Z,5.43
2018-03-15T14:18:17.538Z,5.05
2018-03-15T14:20:45.927Z,5.40
2018-03-15T14:23:13.627Z,5.35
2018-03-15T14:25:42.016Z,4.95
2018-03-15T14:28:09.655Z,5.15
2018-03-15T14:30:38.035Z,4.95
2018-03-15T14:33:06.474Z,5.43
2018-03-15T14:35:34.116Z,4.90
2018-03-15T14:38:01.759Z,4.95
2018-03-15T14:40:30.125Z,5.43
2018-03-15T14:42:58.903Z,4.97
2018-03-15T14:45:27.426Z,5.18
2018-03-15T14:47:55.075Z,5.30
2018-03-15T14:50:22.735Z,4.93
2018-03-15T14:52:50.549Z,4.68
2018-03-15T14:55:18.149Z,4.95
2018-03-15T14:57:46.518Z,4.68
2018-03-15T15:00:14.176Z,5.00
2018-03-15T15:02:42.421Z,4.75
2018-03-15T15:05:10.064Z,4.82
2018-03-15T15:07:37.710Z,4.43
2018-03-15T15:10:06.154Z,4.47
2018-03-15T15:12:33.794Z,4.93
2018-03-15T15:15:01.472Z,4.20
2018-03-15T15:17:29.111Z,4.57
2018-03-15T15:19:56.739Z,4.57
2018-03-15T15:22:24.365Z,4.57
2018-03-15T15:24:52.016Z,4.47
2018-03-15T15:27:19.719Z,4.62
2018-03-15T15:29:47.286Z,4.67
2018-03-15T15:32:14.942Z,4.37
2018-03-15T15:34:43.257Z,4.72
2018-03-15T15:37:10.929Z,3.85
2018-03-15T15:39:39.372Z,4.97
2018-03-15T15:42:06.971Z,4.47
2018-03-15T15:44:34.654Z,4.68
2018-03-15T15:47:03.050Z,4.95
2018-03-15T15:49:31.502Z,4.80
2018-03-15T15:51:59.145Z,5.55
2018-03-15T15:54:26.763Z,5.28
2018-03-15T15:56:54.415Z,5.55
2018-03-15T15:59:22.789Z,4.87
2018-03-15T16:01:50.411Z,4.93
2018-03-15T16:04:18.041Z,5.60
2018-03-15T16:06:46.468Z,5.53
2018-03-15T16:09:14.124Z,5.00
2018-03-15T16:11:41.735Z,5.30
2018-03-15T16:14:10.077Z,5.60
2018-03-15T16:16:37.764Z,5.15
2018-03-15T16:19:05.414Z,4.60
2018-03-15T16:21:33.042Z,5.75
2018-03-15T16:24:01.450Z,5.10
2018-03-15T16:26:29.093Z,5.20
2018-03-15T16:28:56.693Z,5.65
2018-03-15T16:31:24.322Z,5.80
2018-03-15T16:33:52.761Z,5.30
2018-03-15T16:36:20.421Z,5.10
2018-03-15T16:38:48.021Z,6.03
2018-03-15T16:41:15.683Z,5.95
2018-03-15T16:43:43.640Z,5.80
2018-03-15T16:46:11.306Z,5.37
2018-03-15T16:48:38.904Z,5.93
2018-03-15T16:51:06.567Z,5.47
2018-03-15T16:53:35.016Z,6.57
2018-03-15T16:56:02.715Z,5.70
2018-03-15T16:58:30.378Z,5.93
2018-03-15T17:00:57.979Z,5.87
2018-03-15T17:03:26.371Z,6.20
2018-03-15T17:05:53.993Z,5.97
2018-03-15T17:08:21.869Z,6.32
2018-03-15T17:10:49.487Z,6.00
2018-03-15T17:13:17.116Z,5.70
2018-03-15T17:15:44.794Z,6.57
2018-03-15T17:18:13.173Z,6.10
2018-03-15T17:20:41.571Z,6.12
2018-03-15T17:23:09.983Z,6.28
2018-03-15T17:25:37.634Z,6.20
2018-03-15T17:28:05.264Z,6.68
2018-03-15T17:30:32.921Z,6.60
2018-03-15T17:33:00.519Z,6.50
2018-03-15T17:35:29.135Z,6.55
2018-03-15T17:37:56.768Z,6.30
2018-03-15T17:40:25.171Z,6.37
2018-03-15T17:42:52.790Z,7.20
2018-03-15T17:45:20.531Z,6.50
2018-03-15T17:47:48.174Z,6.68
2018-03-15T17:50:15.851Z,6.47
2018-03-15T17:52:43.433Z,6.87
2018-03-15T17:55:11.086Z,6.35
2018-03-15T17:57:38.735Z,6.60
2018-03-15T18:00:06.363Z,6.75
2018-03-15T18:02:34.002Z,6.62
2018-03-15T18:05:01.778Z,6.70
2018-03-15T18:07:29.484Z,6.43
2018-03-15T18:09:57.129Z,6.43
2018-03-15T18:12:25.022Z,7.00
2018-03-15T18:14:53.420Z,6.80
2018-03-15T18:17:21.100Z,6.55
2018-03-15T18:19:48.734Z,7.40
2018-03-15T18:22:16.482Z,7.15
2018-03-15T18:24:44.100Z,7.40
2018-03-15T18:27:11.766Z,6.57
2018-03-15T18:29:39.407Z,8.07
2018-03-15T18:32:07.022Z,8.50
2018-03-15T18:34:34.653Z,7.40
2018-03-15T18:37:03.386Z,7.90
2018-03-15T18:39:31.052Z,7.85
2018-03-15T18:41:58.724Z,7.03
2018-03-15T18:44:26.384Z,7.85
2018-03-15T18:46:54.036Z,7.65
2018-03-15T18:49:21.689Z,7.90
2018-03-15T18:51:49.304Z,7.87
2018-03-15T18:54:16.953Z,8.00
2018-03-15T18:56:44.576Z,8.02
2018-03-15T18:59:13.000Z,8.13
2018-03-15T19:01:40.641Z,7.62
2018-03-15T19:04:08.323Z,7.35
2018-03-15T19:06:35.976Z,8.68
2018-03-15T19:09:03.647Z,8.10
2018-03-15T19:14:11.879Z,8.68
2018-03-15T19:16:39.513Z,8.45
2018-03-15T19:19:07.167Z,8.13
2018-03-15T19:21:34.792Z,7.97
2018-03-15T19:24:02.677Z,7.87
2018-03-15T19:26:30.320Z,8.63
2018-03-15T19:28:57.975Z,8.02
2018-03-15T19:31:26.305Z,8.23
2018-03-15T19:33:53.967Z,8.43
2018-03-15T19:36:21.650Z,7.55
2018-03-15T19:38:49.315Z,9.00
2018-03-15T19:41:17.220Z,7.68
2018-03-15T19:43:45.626Z,8.75
2018-03-15T19:46:13.789Z,8.05
2018-03-15T19:48:41.517Z,8.40
2018-03-15T19:51:09.344Z,8.70
2018-03-15T19:53:37.055Z,8.45
2018-03-15T19:56:04.703Z,9.27
2018-03-15T19:58:32.412Z,9.40
2018-03-15T20:01:00.058Z,9.50
2018-03-15T20:03:27.698Z,8.60
2018-03-15T20:05:56.204Z,8.80
2018-03-15T20:08:25.345Z,9.88
2018-03-15T20:10:53.004Z,9.40
2018-03-15T20:13:20.664Z,9.52
2018-03-15T20:15:49.084Z,9.20
2018-03-15T20:18:17.569Z,10.20
2018-03-15T20:20:45.152Z,8.90
2018-03-15T20:23:18.543Z,9.32
2018-03-15T20:25:46.198Z,9.40
2018-03-15T20:28:20.316Z,10.30
2018-03-15T20:30:48.735Z,9.73
2018-03-15T20:33:22.070Z,10.07
2018-03-15T20:35:49.766Z,9.65
2018-03-15T20:38:17.433Z,9.57
2018-03-15T20:40:50.955Z,9.52
2018-03-15T20:43:19.032Z,9.10
2018-03-15T20:45:52.529Z,9.50
2018-03-15T20:48:25.853Z,9.02
2018-03-15T20:50:53.655Z,10.02
2018-03-15T20:53:21.448Z,10.43
2018-03-15T20:55:49.267Z,9.85
2018-03-15T20:58:16.929Z,9.02
2018-03-15T21:00:44.565Z,10.93
2018-03-15T21:03:12.234Z,9.85
2018-03-15T21:05:39.912Z,9.88
2018-03-15T21:08:08.856Z,10.57
2018-03-15T21:10:36.524Z,9.50
2018-03-15T21:13:04.204Z,10.23
2018-03-15T21:15:33.558Z,10.68
2018-03-15T21:18:01.260Z,9.80
2018-03-15T21:20:29.587Z,10.18
2018-03-15T21:22:57.281Z,10.05
2018-03-15T21:25:24.975Z,10.38
2018-03-15T21:27:52.673Z,9.68
2018-03-15T21:30:20.302Z,10.18
2018-03-15T21:32:47.934Z,10.83
2018-03-15T21:35:16.134Z,11.35
2018-03-15T21:37:43.807Z,10.80
2018-03-15T21:40:11.579Z,10.73
2018-03-15T21:42:39.267Z,10.07
2018-03-15T21:45:07.033Z,10.37
2018-03-15T21:47:34.669Z,10.47
2018-03-15T21:50:02.305Z,10.75
2018-03-15T21:52:31.360Z,10.93
2018-03-15T21:54:59.068Z,10.50
2018-03-15T21:57:27.483Z,11.05
2018-03-15T21:59:55.108Z,10.48
2018-03-15T22:02:24.398Z,11.00
2018-03-15T22:04:52.366Z,11.27
2018-03-15T22:07:20.415Z,11.10
2018-03-15T22:09:48.089Z,11.82
2018-03-15T22:12:15.777Z,10.82
2018-03-15T22:14:43.498Z,11.40
2018-03-15T22:17:11.275Z,11.32
2018-03-15T22:19:38.993Z,10.80
2018-03-15T22:22:07.455Z,10.40
2018-03-15T22:24:35.174Z,11.55
2018-03-15T22:27:02.899Z,10.45
2018-03-15T22:29:31.394Z,11.68
2018-03-15T22:31:59.829Z,11.32
2018-03-15T22:34:28.124Z,11.55
2018-03-15T22:36:55.839Z,11.20
2018-03-15T22:39:24.314Z,10.18
2018-03-15T22:41:51.959Z,11.25
2018-03-15T22:44:19.633Z,10.82
2018-03-15T22:46:47.315Z,11.32
2018-03-15T22:49:15.762Z,10.43
2018-03-15T22:51:43.416Z,10.40
2018-03-15T22:54:11.114Z,10.85
2018-03-15T22:56:38.779Z,10.80
2018-03-15T22:59:06.500Z,11.60
2018-03-15T23:01:34.165Z,10.07
2018-03-15T23:04:01.889Z,11.32
2018-03-15T23:06:29.548Z,10.15
2018-03-15T23:08:57.254Z,9.57
2018-03-15T23:11:25.109Z,10.80
2018-03-15T23:13:52.796Z,10.38
2018-03-15T23:16:21.270Z,9.55
2018-03-15T23:18:49.947Z,10.23
2018-03-15T23:21:17.643Z,10.90
2018-03-15T23:23:45.443Z,10.93
2018-03-15T23:26:14.773Z,10.25
2018-03-15T23:28:42.424Z,9.25
2018-03-15T23:31:10.097Z,10.05
2018-03-15T23:33:37.808Z,9.93
2018-03-15T23:36:06.267Z,10.02
2018-03-15T23:38:33.944Z,10.40
2018-03-15T23:41:01.675Z,9.90
2018-03-15T23:43:30.089Z,10.82
2018-03-15T23:45:58.568Z,9.52
2018-03-15T23:48:26.280Z,10.13
2018-03-15T23:50:53.995Z,9.02
2018-03-15T23:53:21.660Z,9.23
2018-03-15T23:55:49.379Z,9.57
2018-03-15T23:58:18.498Z,9.77
